createdAt,value
2022-11-06T00:01:14.571Z,13.10
2022-11-06T00:03:42.078Z,13.13
2022-11-06T00:06:29.259Z,12.10
2022-11-06T00:08:56.740Z,12.27
2022-11-06T00:11:24.083Z,12.18
2022-11-06T00:13:52.635Z,12.30
2022-11-06T00:16:20.135Z,12.90
2022-11-06T00:18:47.717Z,12.88
2022-11-06T00:21:17.797Z,11.35
2022-11-06T00:23:46.221Z,11.68
2022-11-06T00:26:18.370Z,11.48
2022-11-06T00:28:45.808Z,11.85
2022-11-06T00:31:15.165Z,11.60
2022-11-06T00:33:42.687Z,11.27
2022-11-06T00:36:12.228Z,12.65
2022-11-06T00:38:39.505Z,11.25
2022-11-06T00:41:08.663Z,11.73
2022-11-06T00:43:36.383Z,11.35
2022-11-06T00:46:07.708Z,11.77
2022-11-06T00:48:35.561Z,11.20
2022-11-06T00:51:04.179Z,12.35
2022-11-06T00:53:31.659Z,11.60
2022-11-06T00:56:14.401Z,11.45
2022-11-06T00:58:41.839Z,12.15
2022-11-06T01:01:12.960Z,11.23
2022-11-06T01:03:41.006Z,11.35
2022-11-06T01:06:12.810Z,11.00
2022-11-06T01:08:40.295Z,10.48
2022-11-06T01:11:18.755Z,11.40
2022-11-06T01:13:46.470Z,10.63
2022-11-06T01:16:15.249Z,10.25
2022-11-06T01:18:43.361Z,10.70
2022-11-06T01:21:18.237Z,10.77
2022-11-06T01:23:45.821Z,10.70
2022-11-06T01:26:14.090Z,10.75
2022-11-06T01:28:41.758Z,10.23
2022-11-06T01:31:14.274Z,10.20
2022-11-06T01:33:41.751Z,10.07
2022-11-06T01:36:12.455Z,10.20
2022-11-06T01:38:47.571Z,10.38
2022-11-06T01:41:20.439Z,10.55
2022-11-06T01:43:48.865Z,11.23
2022-11-06T01:46:17.486Z,11.13
2022-11-06T01:48:48.788Z,10.88
2022-11-06T01:51:16.180Z,10.88
2022-11-06T01:53:43.525Z,11.10
2022-11-06T01:56:12.092Z,10.40
2022-11-06T01:58:41.507Z,10.15
2022-11-06T02:01:13.676Z,10.38
2022-11-06T02:03:43.229Z,10.50
2022-11-06T02:06:10.522Z,10.25
2022-11-06T02:08:37.815Z,10.75
2022-11-06T02:11:05.277Z,11.43
2022-11-06T02:14:06.648Z,9.82
2022-11-06T02:16:52.122Z,10.38
2022-11-06T02:19:37.601Z,10.05
2022-11-06T02:22:23.454Z,10.00
2022-11-06T02:24:59.278Z,10.93
2022-11-06T02:27:28.069Z,11.13
2022-11-06T02:30:06.208Z,10.82
2022-11-06T02:32:52.564Z,10.18
2022-11-06T02:35:30.152Z,10.25
2022-11-06T02:38:04.109Z,10.38
2022-11-06T02:40:33.295Z,10.18
2022-11-06T02:43:02.766Z,10.48
2022-11-06T02:45:30.266Z,10.18
2022-11-06T02:47:57.617Z,9.43
2022-11-06T02:50:35.724Z,9.73
2022-11-06T02:53:05.084Z,9.88
2022-11-06T02:55:44.014Z,9.85
2022-11-06T02:58:14.726Z,9.48
2022-11-06T03:00:43.235Z,9.27
2022-11-06T03:03:15.054Z,9.45
2022-11-06T03:05:58.229Z,9.70
2022-11-06T03:08:29.646Z,10.25
2022-11-06T03:11:12.145Z,9.00
2022-11-06T03:13:56.669Z,9.50
2022-11-06T03:16:50.587Z,9.15
2022-11-06T03:19:49.771Z,8.90
2022-11-06T03:22:31.508Z,8.57
2022-11-06T03:25:03.033Z,8.68
2022-11-06T03:27:34.017Z,8.75
2022-11-06T03:30:16.316Z,8.48
2022-11-06T03:33:01.097Z,8.52
2022-11-06T03:35:53.153Z,8.52
2022-11-06T03:38:29.054Z,8.27
2022-11-06T03:41:05.500Z,9.18
2022-11-06T03:43:35.897Z,8.80
2022-11-06T03:46:06.181Z,8.82
2022-11-06T03:48:58.212Z,8.63
2022-11-06T03:51:29.227Z,8.77
2022-11-06T03:54:02.926Z,9.32
2022-11-06T03:56:37.676Z,9.27
2022-11-06T03:59:05.814Z,8.10
2022-11-06T04:01:36.515Z,8.68
2022-11-06T04:04:26.322Z,8.75
2022-11-06T04:06:55.397Z,8.75
2022-11-06T04:09:42.608Z,9.35
2022-11-06T04:12:28.618Z,9.38
2022-11-06T04:14:56.396Z,10.02
2022-11-06T04:17:24.043Z,9.45
2022-11-06T04:19:57.818Z,9.57
2022-11-06T04:22:30.869Z,9.82
2022-11-06T04:25:55.491Z,9.52
2022-11-06T04:28:22.801Z,9.25
2022-11-06T04:31:00.109Z,10.07
2022-11-06T04:33:32.453Z,8.98
2022-11-06T04:35:59.739Z,9.15
2022-11-06T04:38:36.402Z,8.20
2022-11-06T04:41:20.230Z,9.40
2022-11-06T04:43:49.191Z,8.27
2022-11-06T04:46:23.638Z,8.40
2022-11-06T04:48:50.988Z,8.57
2022-11-06T04:51:21.054Z,9.13
2022-11-06T04:53:48.774Z,8.40
2022-11-06T04:56:23.847Z,8.75
2022-11-06T04:58:52.896Z,8.07
2022-11-06T05:01:20.359Z,8.10
2022-11-06T05:03:47.737Z,7.97
2022-11-06T05:06:15.052Z,7.85
2022-11-06T05:08:42.375Z,8.32
2022-11-06T05:11:09.711Z,7.72
2022-11-06T05:13:38.241Z,7.55
2022-11-06T05:16:05.752Z,8.10
2022-11-06T05:18:33.213Z,7.60
2022-11-06T05:21:19.892Z,8.00
2022-11-06T05:23:47.210Z,7.63
2022-11-06T05:26:14.581Z,7.60
2022-11-06T05:28:41.917Z,7.18
2022-11-06T05:31:09.233Z,7.88
2022-11-06T05:33:36.762Z,7.32
2022-11-06T05:36:05.058Z,7.10
2022-11-06T05:38:32.653Z,6.75
2022-11-06T05:41:00.040Z,7.00
2022-11-06T05:43:27.414Z,6.88
2022-11-06T05:45:54.791Z,7.82
2022-11-06T05:48:22.177Z,7.35
2022-11-06T05:50:49.441Z,7.25
2022-11-06T05:53:16.926Z,7.07
2022-11-06T05:55:47.094Z,6.97
2022-11-06T05:58:14.946Z,6.75
2022-11-06T06:00:42.405Z,7.07
2022-11-06T06:03:10.300Z,7.10
2022-11-06T06:05:37.677Z,6.50
2022-11-06T06:08:05.489Z,7.65
2022-11-06T06:10:32.760Z,6.68
2022-11-06T06:13:00.054Z,6.30
2022-11-06T06:15:27.409Z,6.78
2022-11-06T06:17:54.745Z,6.43
2022-11-06T06:20:22.146Z,6.80
2022-11-06T06:22:56.389Z,7.40
2022-11-06T06:27:51.445Z,6.70
2022-11-06T06:30:19.061Z,6.85
2022-11-06T06:32:46.424Z,6.72
2022-11-06T06:35:13.728Z,6.47
2022-11-06T06:37:41.049Z,6.13
2022-11-06T06:40:09.881Z,6.60
2022-11-06T06:42:37.237Z,5.18
2022-11-06T06:45:04.937Z,6.00
2022-11-06T06:47:32.259Z,5.70
2022-11-06T06:49:59.547Z,6.18
2022-11-06T06:52:26.849Z,6.32
2022-11-06T06:54:54.218Z,6.00
2022-11-06T06:57:21.541Z,6.57
2022-11-06T06:59:48.863Z,6.35
2022-11-06T07:02:16.250Z,6.15
2022-11-06T07:04:43.585Z,6.45
2022-11-06T07:07:10.932Z,6.07
2022-11-06T07:09:38.326Z,6.97
2022-11-06T07:12:05.747Z,6.40
2022-11-06T07:14:33.021Z,7.25
2022-11-06T07:17:00.341Z,6.88
2022-11-06T07:19:27.661Z,7.10
2022-11-06T07:21:55.011Z,7.90
2022-11-06T07:24:22.385Z,7.68
2022-11-06T07:26:49.983Z,7.78
2022-11-06T07:29:17.333Z,7.57
2022-11-06T07:31:44.611Z,8.35
2022-11-06T07:34:12.003Z,9.73
2022-11-06T07:36:39.350Z,8.27
2022-11-06T07:39:06.658Z,9.32
2022-11-06T07:41:33.977Z,9.93
2022-11-06T07:44:01.340Z,9.95
2022-11-06T07:46:28.786Z,10.65
2022-11-06T07:48:56.157Z,10.90
2022-11-06T07:51:23.495Z,9.77
2022-11-06T07:53:50.881Z,10.63
2022-11-06T07:56:18.480Z,10.02
2022-11-06T07:58:45.823Z,9.57
2022-11-06T08:01:18.614Z,9.25
2022-11-06T08:03:46.511Z,9.37
2022-11-06T08:06:13.869Z,9.55
2022-11-06T08:08:41.206Z,9.57
2022-11-06T08:11:09.779Z,9.23
2022-11-06T08:13:37.564Z,9.68
2022-11-06T08:16:06.293Z,9.38
2022-11-06T08:18:33.621Z,8.88
2022-11-06T08:21:00.991Z,9.57
2022-11-06T08:23:28.370Z,9.73
2022-11-06T08:25:56.728Z,8.82
2022-11-06T08:28:24.997Z,9.57
2022-11-06T08:30:53.188Z,9.05
2022-11-06T08:33:20.982Z,10.10
2022-11-06T08:35:48.469Z,9.60
2022-11-06T08:38:16.616Z,10.25
2022-11-06T08:40:47.038Z,9.85
2022-11-06T08:43:16.894Z,9.73
2022-11-06T08:45:44.532Z,10.43
2022-11-06T08:48:12.016Z,10.13
2022-11-06T08:50:39.707Z,9.82
2022-11-06T08:53:07.230Z,9.63
2022-11-06T08:55:35.449Z,10.25
2022-11-06T08:58:02.980Z,9.73
2022-11-06T09:00:30.571Z,10.20
2022-11-06T09:03:02.745Z,9.73
2022-11-06T09:05:31.027Z,10.10
2022-11-06T09:07:58.750Z,9.00
2022-11-06T09:10:26.503Z,9.80
2022-11-06T09:12:54.006Z,9.57
2022-11-06T09:15:21.381Z,10.32
2022-11-06T09:17:49.649Z,9.77
2022-11-06T09:20:18.939Z,9.30
2022-11-06T09:22:46.598Z,9.38
2022-11-06T09:25:14.357Z,9.80
2022-11-06T09:27:52.081Z,9.82
2022-11-06T09:30:23.463Z,9.60
2022-11-06T09:32:52.842Z,9.27
2022-11-06T09:35:20.778Z,8.95
2022-11-06T09:37:48.257Z,8.73
2022-11-06T09:40:22.627Z,8.52
2022-11-06T09:45:31.153Z,8.10
2022-11-06T09:48:16.778Z,7.85
2022-11-06T09:51:07.982Z,7.85
2022-11-06T09:53:38.005Z,7.82
2022-11-06T09:56:05.764Z,7.68
2022-11-06T09:58:37.463Z,8.18
2022-11-06T10:01:27.102Z,8.05
2022-11-06T10:03:58.948Z,7.40
2022-11-06T10:06:26.358Z,7.78
2022-11-06T10:08:56.712Z,7.82
2022-11-06T10:11:35.979Z,7.93
2022-11-06T10:14:35.284Z,7.55
2022-11-06T10:17:44.810Z,7.32
2022-11-06T10:20:26.488Z,7.85
2022-11-06T10:23:26.617Z,7.47
2022-11-06T10:25:59.792Z,7.47
2022-11-06T10:28:34.520Z,7.40
2022-11-06T10:31:35.806Z,6.65
2022-11-06T10:34:12.417Z,6.82
2022-11-06T10:36:54.746Z,6.65
2022-11-06T10:39:28.754Z,6.88
2022-11-06T10:42:17.392Z,6.45
2022-11-06T10:45:00.888Z,6.72
2022-11-06T10:47:34.004Z,6.60
2022-11-06T10:50:02.519Z,7.22
2022-11-06T10:52:32.688Z,9.57
2022-11-06T10:55:02.811Z,6.13
2022-11-06T10:57:50.414Z,6.05
2022-11-06T11:00:17.861Z,6.53
2022-11-06T11:02:51.955Z,7.30
2022-11-06T11:05:20.811Z,6.97
2022-11-06T11:07:49.222Z,8.13
2022-11-06T11:10:37.077Z,8.07
2022-11-06T11:13:08.411Z,7.95
2022-11-06T11:15:54.462Z,7.28
2022-11-06T11:18:31.104Z,6.60
2022-11-06T11:21:06.114Z,6.65
2022-11-06T11:23:33.420Z,6.65
2022-11-06T11:26:25.531Z,5.85
2022-11-06T11:28:55.020Z,6.80
2022-11-06T11:31:31.400Z,6.28
2022-11-06T11:34:07.242Z,6.55
2022-11-06T11:37:02.927Z,5.32
2022-11-06T11:39:34.845Z,5.10
2022-11-06T11:42:25.471Z,5.50
2022-11-06T11:45:18.096Z,4.15
2022-11-06T11:47:47.433Z,4.15
2022-11-06T11:50:33.333Z,4.22
2022-11-06T11:53:11.835Z,4.20
2022-11-06T11:55:42.272Z,4.00
2022-11-06T11:58:35.999Z,3.78
2022-11-06T12:01:04.504Z,3.45
2022-11-06T12:03:41.902Z,4.38
2022-11-06T12:06:14.133Z,4.10
2022-11-06T12:08:45.397Z,5.63
2022-11-06T12:11:19.937Z,4.40
2022-11-06T12:14:23.832Z,4.28
2022-11-06T12:16:52.617Z,4.20
2022-11-06T12:19:20.512Z,4.35
2022-11-06T12:21:51.977Z,4.38
2022-11-06T12:24:22.610Z,4.55
2022-11-06T12:26:58.408Z,3.60
2022-11-06T12:29:32.089Z,5.07
2022-11-06T12:32:30.452Z,4.10
2022-11-06T12:35:25.308Z,3.42
2022-11-06T12:38:25.139Z,4.05
2022-11-06T12:40:58.520Z,3.60
2022-11-06T12:43:53.720Z,4.25
2022-11-06T12:46:29.934Z,4.35
2022-11-06T12:49:21.889Z,3.95
2022-11-06T12:51:57.477Z,3.78
2022-11-06T12:54:52.982Z,3.67
2022-11-06T12:57:31.980Z,3.63
2022-11-06T13:00:06.571Z,3.53
2022-11-06T13:02:52.358Z,3.97
2022-11-06T13:05:25.620Z,5.00
2022-11-06T13:08:04.970Z,3.80
2022-11-06T13:10:59.621Z,3.47
2022-11-06T13:13:55.124Z,3.80
2022-11-06T13:16:28.989Z,3.97
2022-11-06T13:18:58.581Z,4.05
2022-11-06T13:21:35.703Z,4.10
2022-11-06T13:24:15.404Z,3.35
2022-11-06T13:26:59.611Z,3.80
2022-11-06T13:29:27.184Z,4.00
2022-11-06T13:31:59.645Z,4.03
2022-11-06T13:34:29.615Z,3.75
2022-11-06T13:36:57.133Z,3.80
2022-11-06T13:39:41.405Z,4.30
2022-11-06T13:42:27.453Z,4.00
2022-11-06T13:44:54.786Z,3.78
2022-11-06T13:47:29.309Z,4.47
2022-11-06T13:50:11.766Z,3.40
2022-11-06T13:52:46.606Z,3.38
2022-11-06T13:55:25.583Z,4.30
2022-11-06T13:58:24.231Z,3.83
2022-11-06T14:01:16.810Z,4.95
2022-11-06T14:04:03.073Z,3.42
2022-11-06T14:06:31.827Z,3.33
2022-11-06T14:09:00.860Z,3.40
2022-11-06T14:11:36.401Z,3.38
2022-11-06T14:14:23.227Z,3.30
2022-11-06T14:17:15.620Z,3.60
2022-11-06T14:19:51.334Z,4.07
2022-11-06T14:22:32.799Z,4.13
2022-11-06T14:25:02.239Z,4.35
2022-11-06T14:27:29.960Z,4.38
2022-11-06T14:30:03.315Z,4.30
2022-11-06T14:32:30.657Z,4.55
2022-11-06T14:35:18.572Z,4.57
2022-11-06T14:37:46.779Z,4.28
2022-11-06T14:40:14.767Z,5.15
2022-11-06T14:42:45.979Z,4.70
2022-11-06T14:45:20.146Z,4.15
2022-11-06T14:47:49.913Z,4.13
2022-11-06T14:50:20.405Z,4.00
2022-11-06T14:52:50.960Z,4.38
2022-11-06T14:55:35.317Z,4.25
2022-11-06T14:58:21.178Z,4.75
2022-11-06T15:01:10.936Z,4.78
2022-11-06T15:03:51.437Z,4.43
2022-11-06T15:06:18.744Z,5.28
2022-11-06T15:08:49.307Z,5.57
2022-11-06T15:11:32.050Z,4.50
2022-11-06T15:14:08.752Z,4.32
2022-11-06T15:16:43.377Z,4.18
2022-11-06T15:19:31.738Z,4.70
2022-11-06T15:22:33.695Z,4.75
2022-11-06T15:25:24.495Z,4.60
2022-11-06T15:28:13.496Z,4.22
2022-11-06T15:30:58.026Z,4.90
2022-11-06T15:33:32.541Z,4.65
2022-11-06T15:36:04.170Z,4.97
2022-11-06T15:38:39.691Z,4.63
2022-11-06T15:41:08.949Z,5.50
2022-11-06T15:43:37.487Z,5.10
2022-11-06T15:46:23.868Z,4.43
2022-11-06T15:49:16.942Z,4.80
2022-11-06T15:52:01.007Z,5.43
2022-11-06T15:54:38.583Z,4.82
2022-11-06T15:57:24.402Z,4.82
2022-11-06T16:00:06.217Z,4.82
2022-11-06T16:02:49.971Z,5.00
2022-11-06T16:05:17.550Z,5.00
2022-11-06T16:07:47.898Z,5.68
2022-11-06T16:10:19.855Z,5.35
2022-11-06T16:12:50.920Z,5.57
2022-11-06T16:15:49.578Z,5.70
2022-11-06T16:18:35.690Z,5.43
2022-11-06T16:21:17.538Z,5.60
2022-11-06T16:23:50.901Z,5.25
2022-11-06T16:26:26.600Z,5.20
2022-11-06T16:28:54.850Z,5.53
2022-11-06T16:31:29.521Z,5.15
2022-11-06T16:33:58.031Z,6.32
2022-11-06T16:36:26.523Z,6.10
2022-11-06T16:38:54.086Z,6.85
2022-11-06T16:41:53.987Z,6.72
2022-11-06T16:44:30.964Z,6.00
2022-11-06T16:47:05.037Z,6.65
2022-11-06T16:49:36.707Z,6.47
2022-11-06T16:52:29.739Z,5.72
2022-11-06T16:54:57.027Z,6.72
2022-11-06T16:57:29.754Z,6.10
2022-11-06T17:00:11.939Z,6.32
2022-11-06T17:02:39.468Z,6.30
2022-11-06T17:05:18.249Z,6.43
2022-11-06T17:07:45.865Z,6.47
2022-11-06T17:10:35.241Z,6.30
2022-11-06T17:13:41.577Z,6.60
2022-11-06T17:16:23.417Z,9.68
2022-11-06T17:18:50.950Z,6.45
2022-11-06T17:21:20.240Z,6.97
2022-11-06T17:23:47.928Z,6.60
2022-11-06T17:26:29.479Z,6.45
2022-11-06T17:28:57.436Z,7.97
2022-11-06T17:31:25.088Z,7.65
2022-11-06T17:33:52.880Z,7.65
2022-11-06T17:36:27.989Z,7.15
2022-11-06T17:38:55.792Z,7.45
2022-11-06T17:41:32.473Z,7.30
2022-11-06T17:44:04.137Z,7.10
2022-11-06T17:46:40.249Z,11.35
2022-11-06T17:49:09.680Z,8.35
2022-11-06T17:52:12.228Z,7.35
2022-11-06T17:54:39.738Z,7.43
2022-11-06T17:57:07.585Z,8.50
2022-11-06T17:59:35.283Z,8.30
2022-11-06T18:02:02.942Z,8.35
2022-11-06T18:04:30.675Z,8.32
2022-11-06T18:06:58.489Z,8.13
2022-11-06T18:09:26.224Z,8.35
2022-11-06T18:11:54.047Z,8.55
2022-11-06T18:14:21.794Z,9.50
2022-11-06T18:16:49.162Z,9.30
2022-11-06T18:19:19.655Z,9.20
2022-11-06T18:21:47.255Z,7.93
2022-11-06T18:24:14.924Z,6.78
2022-11-06T18:26:42.309Z,5.80
2022-11-06T18:29:10.851Z,5.97
2022-11-06T18:31:38.246Z,5.57
2022-11-06T18:34:05.728Z,6.10
2022-11-06T18:36:35.062Z,6.68
2022-11-06T18:39:05.700Z,6.50
2022-11-06T18:41:33.259Z,7.25
2022-11-06T18:44:00.871Z,7.03
2022-11-06T18:46:28.389Z,6.80
2022-11-06T18:48:56.246Z,9.05
2022-11-06T18:51:34.479Z,18.80
2022-11-06T18:54:05.872Z,10.45
2022-11-06T18:56:35.816Z,7.75
2022-11-06T18:59:04.366Z,10.02
2022-11-06T19:01:31.934Z,8.55
2022-11-06T19:03:59.612Z,7.60
2022-11-06T19:06:27.038Z,6.78
2022-11-06T19:08:54.345Z,7.63
2022-11-06T19:11:21.893Z,8.15
2022-11-06T19:13:49.250Z,7.20
2022-11-06T19:16:19.267Z,6.38
2022-11-06T19:18:47.015Z,7.28
2022-11-06T19:21:14.440Z,6.97
2022-11-06T19:23:43.009Z,7.85
2022-11-06T19:29:00.242Z,7.95
2022-11-06T19:31:31.811Z,7.72
2022-11-06T19:33:59.593Z,7.70
2022-11-06T19:36:27.440Z,8.05
2022-11-06T19:38:54.866Z,6.82
2022-11-06T19:41:22.200Z,6.43
2022-11-06T19:43:49.537Z,6.95
2022-11-06T19:46:24.945Z,7.07
2022-11-06T19:48:53.237Z,6.85
2022-11-06T19:51:20.853Z,6.43
2022-11-06T19:53:54.384Z,6.07
2022-11-06T19:56:21.981Z,6.00
2022-11-06T19:58:50.256Z,6.00
2022-11-06T20:01:17.834Z,6.03
2022-11-06T20:03:45.305Z,5.78
2022-11-06T20:06:13.414Z,5.78
2022-11-06T20:08:40.789Z,5.82
2022-11-06T20:11:12.910Z,5.53
2022-11-06T20:13:43.763Z,5.35
2022-11-06T20:16:16.365Z,6.38
2022-11-06T20:18:44.552Z,5.97
2022-11-06T20:21:12.295Z,5.40
2022-11-06T20:23:39.675Z,5.50
2022-11-06T20:26:07.082Z,6.43
2022-11-06T20:28:34.600Z,5.07
2022-11-06T20:31:09.076Z,5.57
2022-11-06T20:33:36.672Z,5.15
2022-11-06T20:36:19.113Z,5.10
2022-11-06T20:38:46.621Z,5.43
2022-11-06T20:41:14.889Z,5.90
2022-11-06T20:43:42.367Z,5.28
2022-11-06T20:46:10.177Z,6.00
2022-11-06T20:48:37.747Z,6.50
2022-11-06T20:51:07.107Z,6.57
2022-11-06T20:53:34.716Z,6.40
2022-11-06T20:56:04.221Z,6.47
2022-11-06T20:58:31.681Z,5.78
2022-11-06T21:01:03.069Z,6.22
2022-11-06T21:03:30.734Z,5.85
2022-11-06T21:05:58.418Z,5.85
2022-11-06T21:08:25.999Z,5.80
2022-11-06T21:11:06.008Z,5.90
2022-11-06T21:13:34.253Z,6.28
2022-11-06T21:16:06.180Z,5.15
2022-11-06T21:18:37.481Z,4.53
2022-11-06T21:21:12.448Z,4.10
2022-11-06T21:23:39.956Z,4.20
2022-11-06T21:26:14.905Z,4.03
2022-11-06T21:28:43.367Z,3.90
2022-11-06T21:31:14.858Z,3.35
2022-11-06T21:33:42.965Z,3.20
2022-11-06T21:36:14.946Z,3.00
2022-11-06T21:38:42.352Z,2.83
2022-11-06T21:41:17.917Z,3.00
2022-11-06T21:43:45.369Z,2.40
2022-11-06T21:46:12.951Z,2.60
2022-11-06T21:48:46.246Z,2.60
2022-11-06T21:51:19.801Z,2.38
2022-11-06T21:54:06.049Z,2.58
2022-11-06T23:19:08.799Z,1.40
2022-11-06T23:21:36.267Z,1.20
2022-11-06T23:24:04.250Z,1.40
2022-11-06T23:26:31.965Z,1.40
2022-11-06T23:28:59.370Z,1.40
2022-11-06T23:31:26.702Z,1.20
2022-11-06T23:33:54.821Z,1.38
2022-11-06T23:36:22.334Z,1.30
2022-11-06T23:38:53.000Z,1.15
2022-11-06T23:41:39.240Z,1.30
2022-11-06T23:44:26.595Z,1.40
2022-11-06T23:46:53.943Z,1.20
2022-11-06T23:49:21.287Z,1.10
2022-11-06T23:51:48.818Z,1.30
2022-11-06T23:54:16.190Z,1.30
2022-11-06T23:56:43.506Z,1.40
2022-11-06T23:59:11.209Z,1.40
